South Crouch, Illinois
Current Conditions -  °F | °C
As of 10:15 AM on Thursday 29 Jan 2015 (Local Time) from KFWC Reporting Station
Overcast Overcast  
Wind Chill: 37°   Ceiling: 1900
Heat Index: 42°   Visibility: 10mi
Dew Point: 35°   Wind: 8mph
Humidity: 77%   Direction: 290°WNW
Pressure: 30.05"   Gusts: 23mph
Location:  38.1018°N, 88.4953°W
Report Text: KFWC 291615Z AUTO 29007G20KT 10SM OVC019 06/02 A3005 RMK AO1 T00550017
Loading
Personal Weather Stations






























Interactive Weather Map New forecast layout! Learn more

10-Day Weather Forecast

Advertisements
Track Severe Weather on mobile